createdAt,value
2022-08-17T00:00:44.062Z,53862.09
2022-08-17T00:03:13.611Z,53882.03
2022-08-17T00:05:47.018Z,53836.19
2022-08-17T00:08:17.365Z,53830.22
2022-08-17T00:10:48.077Z,53862.09
2022-08-17T00:13:20.485Z,53876.03
2022-08-17T00:15:49.225Z,53866.09
2022-08-17T00:19:01.269Z,53884.00
2022-08-17T00:21:11.490Z,53870.06
2022-08-17T00:23:47.777Z,53876.03
2022-08-17T00:26:43.464Z,53917.88
2022-08-17T00:29:08.973Z,53890.00
2022-08-17T00:31:37.750Z,53905.94
2022-08-17T00:34:08.851Z,53893.97
2022-08-17T00:36:37.622Z,53953.75
2022-08-17T00:39:06.615Z,53886.00
2022-08-17T00:41:36.269Z,53899.94
2022-08-17T00:44:12.594Z,53874.06
2022-08-17T00:46:42.904Z,53882.03
2022-08-17T00:49:13.777Z,53876.03
2022-08-17T00:51:45.582Z,53921.88
2022-08-17T00:54:16.996Z,53880.03
2022-08-17T00:56:51.969Z,53895.97
2022-08-17T00:59:24.382Z,53917.88
2022-08-17T01:01:53.459Z,53915.88
2022-08-17T01:04:23.668Z,53943.78
2022-08-17T01:06:53.031Z,53935.81
2022-08-17T01:09:22.697Z,53921.88
2022-08-17T01:11:53.147Z,53917.88
2022-08-17T01:14:22.985Z,53913.91
2022-08-17T01:16:54.191Z,53937.81
2022-08-17T01:19:25.559Z,53913.91
2022-08-17T01:21:59.934Z,53925.84
2022-08-17T01:24:29.946Z,53897.97
2022-08-17T01:26:58.159Z,53925.84
2022-08-17T01:29:30.963Z,53943.78
2022-08-17T01:32:03.706Z,53905.94
2022-08-17T01:34:42.798Z,53884.00
2022-08-17T01:37:19.008Z,53941.78
2022-08-17T01:39:51.630Z,53969.69
2022-08-17T01:42:24.902Z,53949.75
2022-08-17T01:44:56.898Z,53949.75
2022-08-17T01:47:25.348Z,53945.78
2022-08-17T01:49:53.726Z,53911.91
2022-08-17T01:52:23.938Z,53933.81
2022-08-17T01:54:54.689Z,53917.88
2022-08-17T01:57:22.883Z,53927.84
2022-08-17T01:59:51.250Z,53937.81
2022-08-17T02:02:30.351Z,53955.72
2022-08-17T02:04:59.801Z,53929.84
2022-08-17T02:07:59.955Z,53975.66
2022-08-17T02:10:26.518Z,53981.63
2022-08-17T02:13:03.792Z,53933.81
2022-08-17T02:15:32.256Z,53949.75
2022-08-17T02:18:00.787Z,53969.69
2022-08-17T02:20:41.226Z,53995.56
2022-08-17T02:23:13.110Z,53953.75
2022-08-17T02:25:45.395Z,53965.69
2022-08-17T02:28:15.800Z,53959.72
2022-08-17T02:31:00.766Z,53985.63
2022-08-17T02:33:42.911Z,53979.63
2022-08-17T02:36:13.989Z,53977.66
2022-08-17T02:38:43.426Z,53969.69
2022-08-17T02:41:13.557Z,53985.63
2022-08-17T02:43:42.011Z,54007.53
2022-08-17T02:46:11.463Z,53969.69
2022-08-17T02:48:40.009Z,53985.63
2022-08-17T02:51:09.247Z,53997.56
2022-08-17T02:53:37.544Z,54021.47
2022-08-17T02:56:06.033Z,53983.63
2022-08-17T02:58:36.141Z,54011.50
2022-08-17T03:01:06.304Z,53985.63
2022-08-17T03:03:35.440Z,53993.59
2022-08-17T03:06:04.215Z,54025.47
2022-08-17T03:08:32.967Z,53979.63
2022-08-17T03:11:01.202Z,53989.59
2022-08-17T03:13:30.933Z,54003.53
2022-08-17T03:16:05.398Z,53985.63
2022-08-17T03:18:33.518Z,53999.56
2022-08-17T03:21:04.541Z,53993.59
2022-08-17T03:23:33.901Z,53999.56
2022-08-17T03:26:02.590Z,53997.56
2022-08-17T03:28:30.806Z,53973.66
2022-08-17T03:30:59.133Z,54011.50
2022-08-17T03:33:28.737Z,53961.72
2022-08-17T03:35:57.258Z,53993.59
2022-08-17T03:38:25.847Z,53977.66
2022-08-17T03:40:59.431Z,54015.50
2022-08-17T03:43:32.861Z,53993.59
2022-08-17T03:46:34.723Z,54005.53
2022-08-17T03:49:23.458Z,53997.56
2022-08-17T03:52:08.955Z,54001.56
2022-08-17T03:54:54.496Z,53989.59
2022-08-17T03:57:22.722Z,53991.59
2022-08-17T03:59:51.144Z,53965.69
2022-08-17T04:02:23.186Z,54017.50
2022-08-17T04:04:54.456Z,54001.56
2022-08-17T04:07:25.187Z,53999.56
2022-08-17T04:09:53.531Z,53975.66
2022-08-17T04:12:24.825Z,54009.53
2022-08-17T04:14:54.964Z,53959.72
2022-08-17T04:17:26.178Z,53989.59
2022-08-17T04:19:56.991Z,53995.56
2022-08-17T04:22:32.897Z,53993.59
2022-08-17T04:25:16.756Z,54021.47
2022-08-17T04:27:45.160Z,53971.66
2022-08-17T04:30:14.913Z,53953.75
2022-08-17T04:33:06.075Z,53913.91
2022-08-17T04:35:39.827Z,53842.19
2022-08-17T04:38:09.490Z,53792.38
2022-08-17T04:40:55.369Z,53754.53
2022-08-17T04:43:26.293Z,53760.50
2022-08-17T04:45:57.723Z,53728.63
2022-08-17T04:48:35.314Z,53686.78
2022-08-17T04:51:08.357Z,53595.16
2022-08-17T04:53:36.884Z,53631.00
2022-08-17T04:56:05.931Z,53575.25
2022-08-17T04:58:34.649Z,53573.25
2022-08-17T05:01:02.917Z,53521.44
2022-08-17T05:03:32.034Z,53501.53
2022-08-17T05:06:00.419Z,53451.72
2022-08-17T05:08:30.151Z,53451.72
2022-08-17T05:10:58.390Z,53469.66
2022-08-17T05:13:29.873Z,53473.66
2022-08-17T05:16:01.360Z,53517.47
2022-08-17T05:18:30.676Z,53621.06
2022-08-17T05:20:58.952Z,53642.97
2022-08-17T05:23:42.041Z,53684.81
2022-08-17T05:26:25.516Z,53734.59
2022-08-17T05:28:57.208Z,53770.47
2022-08-17T05:31:29.008Z,53800.34
2022-08-17T05:33:57.481Z,53802.34
2022-08-17T05:36:42.446Z,53810.31
2022-08-17T05:39:17.239Z,53838.19
2022-08-17T05:41:48.600Z,53780.41
2022-08-17T05:44:17.585Z,53862.09
2022-08-17T05:46:50.271Z,53818.28
2022-08-17T05:49:25.824Z,53814.28
2022-08-17T05:52:20.871Z,53838.19
2022-08-17T05:55:07.122Z,53874.06
2022-08-17T05:57:53.580Z,53844.16
2022-08-17T06:00:30.914Z,53872.06
2022-08-17T06:03:17.180Z,53794.38
2022-08-17T06:05:56.123Z,53834.22
2022-08-17T06:08:47.984Z,53836.19
2022-08-17T06:11:35.271Z,53822.25
2022-08-17T06:14:21.489Z,53824.25
2022-08-17T06:16:56.356Z,53838.19
2022-08-17T06:19:32.949Z,53826.25
2022-08-17T06:22:06.169Z,53792.38
2022-08-17T06:24:43.715Z,53844.16
2022-08-17T06:27:20.455Z,53822.25
2022-08-17T06:29:57.270Z,53802.34
2022-08-17T06:32:27.213Z,53832.22
2022-08-17T06:34:58.668Z,53802.34
2022-08-17T06:37:43.964Z,53832.22
2022-08-17T06:40:23.392Z,53858.13
2022-08-17T06:43:06.451Z,53840.19
2022-08-17T06:45:40.370Z,53822.25
2022-08-17T06:48:14.281Z,53846.16
2022-08-17T06:51:04.635Z,53822.25
2022-08-17T06:53:40.252Z,53794.38
2022-08-17T06:56:54.105Z,53784.41
2022-08-17T06:59:25.250Z,53798.34
2022-08-17T07:01:56.643Z,53786.41
2022-08-17T07:04:30.167Z,53774.44
2022-08-17T07:07:24.480Z,53790.38
2022-08-17T07:09:56.263Z,53790.38
2022-08-17T07:12:27.947Z,53748.53
2022-08-17T07:15:05.552Z,53742.56
2022-08-17T07:17:46.676Z,53786.41
2022-08-17T07:20:20.671Z,53794.38
2022-08-17T07:23:00.191Z,53770.47
2022-08-17T07:25:30.769Z,53780.41
2022-08-17T07:28:05.987Z,53772.44
2022-08-17T07:30:47.425Z,53746.56
2022-08-17T07:33:20.470Z,53730.63
2022-08-17T07:35:52.355Z,53734.59
2022-08-17T07:38:25.185Z,53738.59
2022-08-17T07:41:04.732Z,53758.50
2022-08-17T07:43:39.737Z,53732.63
2022-08-17T07:46:35.608Z,53710.69
2022-08-17T07:49:35.054Z,53734.59
2022-08-17T07:52:26.077Z,53700.75
2022-08-17T07:54:56.225Z,53686.78
2022-08-17T07:57:37.534Z,53680.81
2022-08-17T08:00:32.422Z,53716.69
2022-08-17T08:03:27.208Z,53694.75
2022-08-17T08:06:00.318Z,53660.91
2022-08-17T08:08:32.934Z,53692.78
2022-08-17T08:11:08.467Z,53670.84
2022-08-17T08:13:45.227Z,53712.69
2022-08-17T08:17:21.353Z,53654.91
2022-08-17T08:19:51.739Z,53686.78
2022-08-17T08:22:29.677Z,53698.75
2022-08-17T08:25:18.918Z,53682.81
2022-08-17T08:28:31.803Z,53694.75
2022-08-17T08:31:09.708Z,53662.88
2022-08-17T08:33:51.909Z,53682.81
2022-08-17T08:37:02.125Z,53678.81
2022-08-17T08:39:36.433Z,53650.94
2022-08-17T08:42:14.309Z,53694.75
2022-08-17T08:45:01.177Z,53662.88
2022-08-17T08:47:57.452Z,53662.88
2022-08-17T08:50:47.521Z,53646.94
2022-08-17T08:53:25.498Z,53676.84
2022-08-17T08:55:57.288Z,53650.94
2022-08-17T08:58:41.866Z,53674.84
2022-08-17T09:01:19.940Z,53611.09
2022-08-17T09:04:21.408Z,53660.91
2022-08-17T09:07:03.821Z,53635.00
2022-08-17T09:09:50.774Z,53627.03
2022-08-17T09:12:26.399Z,53631.00
2022-08-17T09:15:02.683Z,53662.88
2022-08-17T09:17:39.726Z,53654.91
2022-08-17T09:20:28.387Z,53640.97
2022-08-17T09:23:02.971Z,53674.84
2022-08-17T09:25:35.769Z,53635.00
2022-08-17T09:28:07.724Z,53627.03
2022-08-17T09:30:42.776Z,53635.00
2022-08-17T09:33:14.054Z,53631.00
2022-08-17T09:35:46.039Z,53642.97
2022-08-17T09:38:30.319Z,53609.09
2022-08-17T09:41:10.895Z,53638.97
2022-08-17T09:43:43.906Z,53599.16
2022-08-17T09:46:19.539Z,53607.09
2022-08-17T09:48:55.752Z,53619.06
2022-08-17T09:51:31.632Z,53662.88
2022-08-17T09:54:21.029Z,53674.84
2022-08-17T09:57:25.935Z,53619.06
2022-08-17T10:00:00.470Z,53627.03
2022-08-17T10:02:51.296Z,53648.94
2022-08-17T10:05:25.501Z,53627.03
2022-08-17T10:08:02.168Z,53623.03
2022-08-17T10:10:38.230Z,53619.06
2022-08-17T10:13:19.349Z,53609.09
2022-08-17T10:15:58.844Z,53603.13
2022-08-17T10:18:39.976Z,53621.06
2022-08-17T10:21:29.043Z,53599.16
2022-08-17T10:24:24.748Z,53575.25
2022-08-17T10:26:57.516Z,53591.19
2022-08-17T10:29:49.666Z,53591.19
2022-08-17T10:32:32.652Z,53591.19
2022-08-17T10:35:30.341Z,53613.09
2022-08-17T10:38:31.973Z,53595.16
2022-08-17T10:41:08.130Z,53607.09
2022-08-17T10:44:39.482Z,53595.16
2022-08-17T10:46:57.836Z,53615.06
2022-08-17T10:49:35.103Z,53591.19
2022-08-17T10:52:05.871Z,53583.22
2022-08-17T10:54:48.293Z,53585.19
2022-08-17T10:57:40.754Z,53579.22
2022-08-17T11:00:16.044Z,53573.25
2022-08-17T11:02:50.509Z,53563.28
2022-08-17T11:05:54.129Z,53567.28
2022-08-17T11:08:56.647Z,53551.34
2022-08-17T11:11:47.550Z,53551.34
2022-08-17T11:14:29.785Z,53555.31
2022-08-17T11:17:16.878Z,53555.31
2022-08-17T11:20:13.921Z,53551.34
2022-08-17T11:23:10.195Z,53565.28
2022-08-17T11:25:41.372Z,53539.38
2022-08-17T11:28:18.106Z,53535.41
2022-08-17T11:30:52.895Z,53515.47
2022-08-17T11:33:57.824Z,53497.56
2022-08-17T11:37:10.424Z,53539.38
2022-08-17T11:40:06.518Z,53569.25
2022-08-17T11:43:09.451Z,53517.47
2022-08-17T11:46:02.312Z,53515.47
2022-08-17T11:48:56.743Z,53519.47
2022-08-17T11:51:45.609Z,53479.63
2022-08-17T11:54:39.940Z,53537.38
2022-08-17T11:57:40.962Z,53543.38
2022-08-17T12:00:25.825Z,53559.31
2022-08-17T12:03:26.586Z,53547.34
2022-08-17T12:06:05.410Z,53581.22
2022-08-17T12:08:35.233Z,53551.34
2022-08-17T12:11:08.247Z,53543.38
2022-08-17T12:13:44.708Z,53539.38
2022-08-17T12:16:16.616Z,53571.25
2022-08-17T12:18:54.079Z,53563.28
2022-08-17T12:21:36.875Z,53555.31
2022-08-17T12:24:14.669Z,53551.34
2022-08-17T12:26:45.232Z,53571.25
2022-08-17T12:29:18.395Z,53575.25
2022-08-17T12:32:06.975Z,53529.41
2022-08-17T12:34:41.759Z,53519.47
2022-08-17T12:37:18.605Z,53545.34
2022-08-17T12:39:53.799Z,53563.28
2022-08-17T12:42:29.601Z,53555.31
2022-08-17T12:44:57.980Z,53535.41
2022-08-17T12:47:29.494Z,53513.47
2022-08-17T12:50:29.426Z,53551.34
2022-08-17T12:53:01.908Z,53501.53
2022-08-17T12:55:36.282Z,53503.53
2022-08-17T12:58:05.346Z,53555.31
2022-08-17T13:00:38.157Z,53529.41
2022-08-17T13:03:09.722Z,53535.41
2022-08-17T13:05:54.924Z,53535.41
2022-08-17T13:08:28.487Z,53547.34
2022-08-17T13:10:57.924Z,53535.41
2022-08-17T13:13:27.528Z,53557.31
2022-08-17T13:15:58.413Z,53559.31
2022-08-17T13:18:43.003Z,53541.38
2022-08-17T13:21:23.548Z,53539.38
2022-08-17T13:24:04.402Z,53547.34
2022-08-17T13:26:36.753Z,53539.38
2022-08-17T13:29:11.176Z,53529.41
2022-08-17T13:31:52.108Z,53549.34
2022-08-17T13:34:36.939Z,53531.41
2022-08-17T13:37:33.706Z,53535.41
2022-08-17T13:40:27.165Z,53541.38
2022-08-17T13:42:57.074Z,53523.44
2022-08-17T13:45:39.324Z,53545.34
2022-08-17T13:48:14.544Z,53515.47
2022-08-17T13:50:47.452Z,53511.50
2022-08-17T13:53:24.684Z,53527.44
2022-08-17T13:55:56.210Z,53531.41
2022-08-17T13:58:27.748Z,53535.41
2022-08-17T14:00:56.493Z,53515.47
2022-08-17T14:03:28.184Z,53555.31
2022-08-17T14:06:51.540Z,53515.47
2022-08-17T14:12:19.041Z,53553.31
2022-08-17T14:14:51.720Z,53515.47
2022-08-17T14:17:20.388Z,53511.50
2022-08-17T14:19:48.629Z,53533.41
2022-08-17T14:22:20.868Z,53523.44
2022-08-17T14:24:51.331Z,53535.41
2022-08-17T14:27:20.784Z,53511.50
2022-08-17T14:29:49.882Z,53515.47
2022-08-17T14:32:23.857Z,53517.47
2022-08-17T14:35:01.836Z,53513.47
2022-08-17T14:37:30.717Z,53495.56
2022-08-17T14:40:02.672Z,53527.44
2022-08-17T14:42:34.093Z,53511.50
2022-08-17T14:45:06.180Z,53515.47
2022-08-17T14:47:54.232Z,53517.47
2022-08-17T14:50:23.968Z,53531.41
2022-08-17T14:53:01.550Z,53519.47
2022-08-17T14:55:32.609Z,53525.44
2022-08-17T14:58:01.021Z,53507.50
2022-08-17T15:00:29.522Z,53479.63
2022-08-17T15:03:00.360Z,53487.59
2022-08-17T15:05:32.465Z,53491.56
2022-08-17T15:08:01.204Z,53511.50
2022-08-17T15:10:32.700Z,53517.47
2022-08-17T15:13:01.270Z,53487.59
2022-08-17T15:15:30.430Z,53521.44
2022-08-17T15:17:59.924Z,53515.47
2022-08-17T15:20:30.303Z,53487.59
2022-08-17T15:22:59.389Z,53533.41
2022-08-17T15:25:31.887Z,53499.53
2022-08-17T15:28:01.246Z,53503.53
2022-08-17T15:30:30.436Z,53483.59
2022-08-17T15:33:00.553Z,53463.69
2022-08-17T15:35:30.725Z,53513.47
2022-08-17T15:38:08.088Z,53511.50
2022-08-17T15:40:42.915Z,53487.59
2022-08-17T15:43:14.502Z,53491.56
2022-08-17T15:45:42.778Z,53471.66
2022-08-17T15:48:14.285Z,53483.59
2022-08-17T15:50:42.798Z,53499.53
2022-08-17T15:53:10.933Z,53489.59
2022-08-17T15:55:44.058Z,53477.63
2022-08-17T15:58:12.184Z,53491.56
2022-08-17T16:00:48.282Z,53519.47
2022-08-17T16:03:57.349Z,53507.50
2022-08-17T16:06:09.995Z,53507.50
2022-08-17T16:08:41.626Z,53499.53
2022-08-17T16:11:12.203Z,53511.50
2022-08-17T16:13:41.641Z,53515.47
2022-08-17T16:16:11.812Z,53487.59
2022-08-17T16:18:40.545Z,53487.59
2022-08-17T16:21:31.283Z,53497.56
2022-08-17T16:24:12.750Z,53507.50
2022-08-17T16:26:46.666Z,53501.53
2022-08-17T16:29:14.825Z,53505.53
2022-08-17T16:32:04.882Z,53511.50
2022-08-17T16:34:34.351Z,53521.44
2022-08-17T16:37:05.428Z,53537.38
2022-08-17T16:39:34.451Z,53543.38
2022-08-17T16:42:05.048Z,53511.50
2022-08-17T16:44:33.449Z,53539.38
2022-08-17T16:47:04.239Z,53529.41
2022-08-17T16:49:37.743Z,53527.44
2022-08-17T16:52:13.235Z,53513.47
2022-08-17T16:54:48.678Z,53553.31
2022-08-17T16:57:19.657Z,53559.31
2022-08-17T16:59:50.237Z,53529.41
2022-08-17T17:02:42.170Z,53567.28
2022-08-17T17:05:27.354Z,53567.28
2022-08-17T17:08:04.035Z,53535.41
2022-08-17T17:10:38.769Z,53541.38
2022-08-17T17:13:12.333Z,53559.31
2022-08-17T17:15:51.786Z,53547.34
2022-08-17T17:18:24.301Z,53545.34
2022-08-17T17:20:57.549Z,53599.16
2022-08-17T17:23:42.376Z,53549.34
2022-08-17T17:26:33.027Z,53581.22
2022-08-17T17:29:19.521Z,53587.19
2022-08-17T17:31:56.222Z,53599.16
2022-08-17T17:34:30.111Z,53575.25
2022-08-17T17:37:03.404Z,53603.13
2022-08-17T17:39:43.865Z,53583.22
2022-08-17T17:42:20.146Z,53579.22
2022-08-17T17:44:54.942Z,53597.16
2022-08-17T17:47:23.438Z,53631.00
2022-08-17T17:49:51.697Z,53615.06
2022-08-17T17:52:28.414Z,53658.91
2022-08-17T17:55:13.186Z,53638.97
2022-08-17T17:57:50.287Z,53652.94
2022-08-17T18:00:24.339Z,53666.88
2022-08-17T18:03:08.599Z,53650.94
2022-08-17T18:06:05.141Z,53700.75
2022-08-17T18:08:49.448Z,53660.91
2022-08-17T18:11:43.854Z,53644.97
2022-08-17T18:14:49.281Z,53664.88
2022-08-17T18:17:20.463Z,53670.84
2022-08-17T18:19:48.507Z,53690.78
2022-08-17T18:22:19.118Z,53678.81
2022-08-17T18:24:48.846Z,53694.75
2022-08-17T18:27:24.342Z,53686.78
2022-08-17T18:29:54.133Z,53676.84
2022-08-17T18:32:35.768Z,53686.78
2022-08-17T18:35:35.067Z,53710.69
2022-08-17T18:38:24.027Z,53668.88
2022-08-17T18:41:01.214Z,53631.00
2022-08-17T18:43:44.104Z,53738.59
2022-08-17T18:46:28.308Z,53712.69
2022-08-17T18:49:01.606Z,53698.75
2022-08-17T18:51:42.169Z,53694.75
2022-08-17T18:57:34.697Z,53720.66
2022-08-17T19:00:11.106Z,53692.78
2022-08-17T19:02:52.150Z,53686.78
2022-08-17T19:05:36.622Z,53652.94
2022-08-17T19:08:23.641Z,53694.75
2022-08-17T19:10:55.179Z,53686.78
2022-08-17T19:13:27.124Z,53698.75
2022-08-17T19:16:11.466Z,53690.78
2022-08-17T19:18:49.420Z,53710.69
2022-08-17T19:21:24.127Z,53676.84
2022-08-17T19:23:58.700Z,53676.84
2022-08-17T19:26:50.782Z,53690.78
2022-08-17T19:29:23.548Z,53702.72
2022-08-17T19:31:52.909Z,53692.78
2022-08-17T19:34:33.745Z,53704.72
2022-08-17T19:37:11.749Z,53710.69
2022-08-17T19:39:50.257Z,53686.78
2022-08-17T19:42:31.163Z,53790.38
2022-08-17T19:45:10.078Z,53684.81
2022-08-17T19:48:02.888Z,53730.63
2022-08-17T19:50:39.186Z,53734.59
2022-08-17T19:53:20.842Z,53742.56
2022-08-17T19:55:58.488Z,53756.50
2022-08-17T19:58:51.603Z,53752.53
2022-08-17T20:01:33.966Z,53742.56
2022-08-17T20:04:11.501Z,53744.56
2022-08-17T20:06:44.934Z,53762.50
2022-08-17T20:09:33.752Z,53758.50
2022-08-17T20:12:07.227Z,53770.47
2022-08-17T20:14:41.340Z,53758.50
2022-08-17T20:17:23.344Z,53748.53
2022-08-17T20:20:00.228Z,53744.56
2022-08-17T20:22:36.820Z,53758.50
2022-08-17T20:25:30.592Z,53800.34
2022-08-17T20:28:05.728Z,53764.47
2022-08-17T20:30:38.828Z,53718.66
2022-08-17T20:33:12.437Z,53764.47
2022-08-17T20:36:00.744Z,53742.56
2022-08-17T20:38:42.183Z,53706.72
2022-08-17T20:41:17.244Z,53716.69
2022-08-17T20:44:05.345Z,53734.59
2022-08-17T20:47:02.573Z,53728.63
2022-08-17T20:49:53.769Z,53766.47
2022-08-17T20:52:48.603Z,53734.59
2022-08-17T20:55:52.377Z,53766.47
2022-08-17T20:58:48.265Z,53740.56
2022-08-17T21:01:24.422Z,53746.56
2022-08-17T21:03:54.366Z,53734.59
2022-08-17T21:06:25.498Z,53774.44
2022-08-17T21:08:59.663Z,53770.47
2022-08-17T21:12:03.306Z,53816.28
2022-08-17T21:14:59.790Z,53770.47
2022-08-17T21:17:41.987Z,53784.41
2022-08-17T21:20:25.930Z,53752.53
2022-08-17T21:23:13.717Z,53734.59
2022-08-17T21:26:02.588Z,53734.59
2022-08-17T21:29:00.311Z,53762.50
2022-08-17T21:31:35.639Z,53738.59
2022-08-17T21:34:27.744Z,53702.72
2022-08-17T21:36:56.853Z,53742.56
2022-08-17T21:39:34.621Z,53730.63
2022-08-17T21:42:03.505Z,53738.59
2022-08-17T21:44:35.027Z,53754.53
2022-08-17T21:47:23.896Z,53710.69
2022-08-17T21:49:52.292Z,53754.53
2022-08-17T21:52:23.748Z,53776.44
2022-08-17T21:54:54.642Z,53720.66
2022-08-17T21:57:27.399Z,53734.59
2022-08-17T21:59:58.462Z,53762.50
2022-08-17T22:02:32.158Z,53750.53
2022-08-17T22:05:03.083Z,53722.66
2022-08-17T22:07:42.177Z,53728.63
2022-08-17T22:10:30.632Z,53760.50
2022-08-17T22:13:16.743Z,53782.41
2022-08-17T22:15:47.977Z,53778.44
2022-08-17T22:18:22.811Z,53760.50
2022-08-17T22:20:52.759Z,53774.44
2022-08-17T22:23:45.451Z,53756.50
2022-08-17T22:26:17.024Z,53774.44
2022-08-17T22:28:48.917Z,53778.44
2022-08-17T22:31:18.818Z,53746.56
2022-08-17T22:33:50.814Z,53770.47
2022-08-17T22:36:25.710Z,53776.44
2022-08-17T22:38:55.936Z,53774.44
2022-08-17T22:41:34.807Z,53716.69
2022-08-17T22:44:23.276Z,53794.38
2022-08-17T22:46:59.145Z,53790.38
2022-08-17T22:49:33.053Z,53786.41
2022-08-17T22:52:23.353Z,53802.34
2022-08-17T22:55:36.636Z,53798.34
2022-08-17T22:58:29.288Z,53766.47
2022-08-17T23:00:57.459Z,53788.38
2022-08-17T23:03:28.022Z,53766.47
2022-08-17T23:06:08.048Z,53788.38
2022-08-17T23:08:43.649Z,53758.50
2022-08-17T23:11:11.789Z,53782.41
2022-08-17T23:13:40.394Z,53790.38
2022-08-17T23:16:09.646Z,53786.41
2022-08-17T23:18:37.931Z,53750.53
2022-08-17T23:21:07.801Z,53764.47
2022-08-17T23:23:37.146Z,53754.53
2022-08-17T23:26:11.326Z,53792.38
2022-08-17T23:28:41.101Z,53752.53
2022-08-17T23:31:09.805Z,53750.53
2022-08-17T23:33:39.495Z,53790.38
2022-08-17T23:36:15.109Z,53758.50
2022-08-17T23:38:44.730Z,53786.41
2022-08-17T23:41:18.411Z,53770.47
2022-08-17T23:43:48.937Z,53798.34
2022-08-17T23:46:17.603Z,53772.44
2022-08-17T23:48:45.982Z,53758.50
2022-08-17T23:51:19.560Z,53766.47
2022-08-17T23:53:52.186Z,53738.59
2022-08-17T23:56:23.807Z,53780.41
2022-08-17T23:58:51.984Z,53810.31
